This is the latest recevied weather packets stored in our database for station/object WA6ODQ-13. If no packets are shown the sender has not sent any weather packets the latest 10 day(s).
| Time | Temp. | Humidity | Pressure | Rain* | Wind** | Luminosity | Snow |
|---|---|---|---|---|---|---|---|
| 1777334001 | 20.56° C | 50% | 1014.5 hPa | 0 mm | - | 356 W/m² | - |
| 1777333697 | 20° C | 50% | 1014.4 hPa | 0 mm | - | 367 W/m² | - |
| 1777333394 | 21.11° C | 49% | 1014.4 hPa | 0 mm | - | 383 W/m² | - |
| 1777333092 | 20.56° C | 50% | 1014.4 hPa | 0 mm | - | 395 W/m² | - |
| 1777332790 | 20.56° C | 50% | 1014.4 hPa | 0 mm | - | 411 W/m² | - |
| 1777332486 | 20.56° C | 48% | 1014.2 hPa | 0 mm | - | 424 W/m² | - |
| 1777332183 | 20.56° C | 50% | 1014.5 hPa | 0 mm | - | 443 W/m² | - |
| 1777331880 | 20° C | 52% | 1014.5 hPa | 0 mm | - | 458 W/m² | - |
| 1777331577 | 18.89° C | 54% | 1014.5 hPa | 0 mm | - | 453 W/m² | - |
| 1777331275 | 20° C | 52% | 1014.5 hPa | 0 mm | - | 172 W/m² | - |
| 1777330972 | 20° C | 51% | 1014.8 hPa | 0 mm | - | 511 W/m² | - |
| 1777330669 | 20° C | 50% | 1014.8 hPa | 0 mm | - | 563 W/m² | - |
| 1777330366 | 20° C | 53% | 1014.6 hPa | 0 mm | - | 563 W/m² | - |
| 1777330063 | 19.44° C | 53% | 1014.8 hPa | 0 mm | - | 337 W/m² | - |
| 1777329757 | 19.44° C | 52% | 1014.9 hPa | 0 mm | - | 325 W/m² | - |
| 1777329455 | 18.89° C | 53% | 1014.9 hPa | 0 mm | - | 552 W/m² | - |
| 1777329152 | 18.89° C | 52% | 1014.8 hPa | 0 mm | - | 340 W/m² | - |
| 1777328849 | 18.89° C | 51% | 1015.1 hPa | 0 mm | - | 329 W/m² | - |
| 1777328547 | 18.33° C | 54% | 1014.8 hPa | 0 mm | - | 326 W/m² | - |
| 1777328245 | 18.33° C | 55% | 1015 hPa | 0 mm | - | 280 W/m² | - |
| 1777327943 | 18.33° C | 55% | 1014.9 hPa | 0 mm | - | 261 W/m² | - |
| 1777327641 | 18.33° C | 54% | 1014.9 hPa | 0 mm | - | 288 W/m² | - |
| 1777327337 | 18.89° C | 52% | 1015 hPa | 0 mm | - | 290 W/m² | - |
| 1777327029 | 18.33° C | 55% | 1015 hPa | 0 mm | - | 289 W/m² | - |
| 1777326726 | 19.44° C | 54% | 1015 hPa | 0 mm | - | 285 W/m² | - |
* Rain latest hour (hover to see other rain measurements)
** Current wind speed in m/s (hover to see current wind gust speed)